sensor_id;sensor_type;location;lat;lon;timestamp;P1;durP1;ratioP1;P2;durP2;ratioP2
42886;SDS011;29032;56.028;92.904;2023-02-19T00:02:18;71.53;;;33.97;;
42886;SDS011;29032;56.028;92.904;2023-02-19T00:07:21;69.70;;;33.60;;
42886;SDS011;29032;56.028;92.904;2023-02-19T00:12:23;71.97;;;32.97;;
42886;SDS011;29032;56.028;92.904;2023-02-19T00:17:26;76.70;;;34.57;;
42886;SDS011;29032;56.028;92.904;2023-02-19T00:22:28;102.33;;;43.53;;
42886;SDS011;29032;56.028;92.904;2023-02-19T00:27:31;100.30;;;42.10;;
42886;SDS011;29032;56.028;92.904;2023-02-19T00:32:35;100.20;;;43.60;;
42886;SDS011;29032;56.028;92.904;2023-02-19T00:37:37;109.37;;;46.23;;
42886;SDS011;29032;56.028;92.904;2023-02-19T00:42:39;98.20;;;42.57;;
42886;SDS011;29032;56.028;92.904;2023-02-19T00:47:43;115.77;;;50.47;;
42886;SDS011;29032;56.028;92.904;2023-02-19T00:52:45;124.20;;;50.03;;
42886;SDS011;29032;56.028;92.904;2023-02-19T00:57:47;126.20;;;51.27;;
42886;SDS011;29032;56.028;92.904;2023-02-19T01:02:51;129.63;;;52.30;;
42886;SDS011;29032;56.028;92.904;2023-02-19T01:07:53;116.13;;;47.13;;
42886;SDS011;29032;56.028;92.904;2023-02-19T01:12:55;117.13;;;49.20;;
42886;SDS011;29032;56.028;92.904;2023-02-19T01:18:01;106.77;;;47.57;;
42886;SDS011;29032;56.028;92.904;2023-02-19T01:23:03;106.03;;;42.23;;
42886;SDS011;29032;56.028;92.904;2023-02-19T01:28:05;92.20;;;41.47;;
42886;SDS011;29032;56.028;92.904;2023-02-19T01:33:10;87.50;;;38.70;;
42886;SDS011;29032;56.028;92.904;2023-02-19T01:38:12;77.13;;;35.43;;
42886;SDS011;29032;56.028;92.904;2023-02-19T01:43:14;74.40;;;34.00;;
42886;SDS011;29032;56.028;92.904;2023-02-19T01:48:18;69.33;;;31.83;;
42886;SDS011;29032;56.028;92.904;2023-02-19T01:53:25;59.75;;;28.35;;
42886;SDS011;29032;56.028;92.904;2023-02-19T01:58:30;60.13;;;27.63;;
42886;SDS011;29032;56.028;92.904;2023-02-19T02:03:38;56.07;;;25.97;;
42886;SDS011;29032;56.028;92.904;2023-02-19T02:13:44;43.33;;;19.03;;
42886;SDS011;29032;56.028;92.904;2023-02-19T02:18:51;48.97;;;22.77;;
42886;SDS011;29032;56.028;92.904;2023-02-19T02:24:05;47.90;;;20.73;;
42886;SDS011;29032;56.028;92.904;2023-02-19T02:29:29;38.40;;;18.57;;
42886;SDS011;29032;56.028;92.904;2023-02-19T02:34:50;35.97;;;17.70;;
42886;SDS011;29032;56.028;92.904;2023-02-19T02:39:57;28.10;;;15.33;;
42886;SDS011;29032;56.028;92.904;2023-02-19T02:45:14;30.50;;;15.90;;
42886;SDS011;29032;56.028;92.904;2023-02-19T02:50:26;24.20;;;12.93;;
42886;SDS011;29032;56.028;92.904;2023-02-19T02:55:35;27.17;;;13.77;;
42886;SDS011;29032;56.028;92.904;2023-02-19T03:00:42;24.80;;;12.33;;
42886;SDS011;29032;56.028;92.904;2023-02-19T03:05:50;19.63;;;11.00;;
42886;SDS011;29032;56.028;92.904;2023-02-19T03:10:57;18.03;;;9.90;;
42886;SDS011;29032;56.028;92.904;2023-02-19T03:16:04;18.00;;;10.48;;
42886;SDS011;29032;56.028;92.904;2023-02-19T03:21:12;20.10;;;11.67;;
42886;SDS011;29032;56.028;92.904;2023-02-19T03:26:17;23.52;;;10.40;;
42886;SDS011;29032;56.028;92.904;2023-02-19T03:31:26;19.33;;;10.97;;
42886;SDS011;29032;56.028;92.904;2023-02-19T03:36:36;18.63;;;11.43;;
42886;SDS011;29032;56.028;92.904;2023-02-19T03:41:44;19.67;;;10.40;;
42886;SDS011;29032;56.028;92.904;2023-02-19T03:46:52;23.10;;;12.13;;
42886;SDS011;29032;56.028;92.904;2023-02-19T03:52:00;23.73;;;13.13;;
42886;SDS011;29032;56.028;92.904;2023-02-19T03:57:13;24.53;;;13.27;;
42886;SDS011;29032;56.028;92.904;2023-02-19T04:02:23;23.20;;;13.60;;
42886;SDS011;29032;56.028;92.904;2023-02-19T04:07:36;24.20;;;13.87;;
42886;SDS011;29032;56.028;92.904;2023-02-19T04:12:44;25.60;;;13.73;;
42886;SDS011;29032;56.028;92.904;2023-02-19T04:22:56;27.93;;;14.60;;
42886;SDS011;29032;56.028;92.904;2023-02-19T04:27:59;26.40;;;14.60;;
42886;SDS011;29032;56.028;92.904;2023-02-19T04:33:01;21.23;;;12.70;;
42886;SDS011;29032;56.028;92.904;2023-02-19T04:38:05;22.60;;;13.97;;
42886;SDS011;29032;56.028;92.904;2023-02-19T04:43:07;24.37;;;14.70;;
42886;SDS011;29032;56.028;92.904;2023-02-19T04:48:09;28.63;;;15.63;;
42886;SDS011;29032;56.028;92.904;2023-02-19T04:53:12;26.83;;;15.63;;
42886;SDS011;29032;56.028;92.904;2023-02-19T04:58:15;26.30;;;15.00;;
42886;SDS011;29032;56.028;92.904;2023-02-19T05:03:17;26.37;;;14.50;;
42886;SDS011;29032;56.028;92.904;2023-02-19T05:08:20;24.47;;;14.40;;
42886;SDS011;29032;56.028;92.904;2023-02-19T05:13:22;27.27;;;15.07;;
42886;SDS011;29032;56.028;92.904;2023-02-19T05:18:25;25.40;;;13.87;;
42886;SDS011;29032;56.028;92.904;2023-02-19T05:23:29;24.87;;;14.67;;
42886;SDS011;29032;56.028;92.904;2023-02-19T05:28:31;21.87;;;12.10;;
42886;SDS011;29032;56.028;92.904;2023-02-19T05:33:33;19.87;;;10.77;;
42886;SDS011;29032;56.028;92.904;2023-02-19T05:38:37;18.93;;;9.97;;
42886;SDS011;29032;56.028;92.904;2023-02-19T05:43:41;19.47;;;10.47;;
42886;SDS011;29032;56.028;92.904;2023-02-19T05:48:44;17.80;;;11.00;;
42886;SDS011;29032;56.028;92.904;2023-02-19T05:53:49;20.33;;;12.73;;
42886;SDS011;29032;56.028;92.904;2023-02-19T05:58:51;22.40;;;13.30;;
42886;SDS011;29032;56.028;92.904;2023-02-19T06:03:56;22.07;;;13.23;;
42886;SDS011;29032;56.028;92.904;2023-02-19T06:08:59;20.93;;;12.20;;
42886;SDS011;29032;56.028;92.904;2023-02-19T06:14:01;20.23;;;11.77;;
42886;SDS011;29032;56.028;92.904;2023-02-19T06:19:04;19.27;;;11.13;;
42886;SDS011;29032;56.028;92.904;2023-02-19T06:24:08;25.33;;;13.63;;
42886;SDS011;29032;56.028;92.904;2023-02-19T06:29:10;24.30;;;13.53;;
42886;SDS011;29032;56.028;92.904;2023-02-19T06:34:13;23.73;;;14.17;;
42886;SDS011;29032;56.028;92.904;2023-02-19T06:39:17;22.87;;;13.37;;
42886;SDS011;29032;56.028;92.904;2023-02-19T06:44:19;21.20;;;10.50;;
42886;SDS011;29032;56.028;92.904;2023-02-19T06:49:21;17.27;;;10.47;;
42886;SDS011;29032;56.028;92.904;2023-02-19T06:54:25;17.77;;;10.27;;
42886;SDS011;29032;56.028;92.904;2023-02-19T06:59:27;20.80;;;10.77;;
42886;SDS011;29032;56.028;92.904;2023-02-19T07:04:30;17.43;;;11.03;;
42886;SDS011;29032;56.028;92.904;2023-02-19T07:09:33;22.43;;;11.70;;
42886;SDS011;29032;56.028;92.904;2023-02-19T07:14:35;20.40;;;10.80;;
42886;SDS011;29032;56.028;92.904;2023-02-19T07:19:37;19.77;;;10.03;;
42886;SDS011;29032;56.028;92.904;2023-02-19T07:24:41;18.63;;;10.73;;
42886;SDS011;29032;56.028;92.904;2023-02-19T07:29:43;14.27;;;8.73;;
42886;SDS011;29032;56.028;92.904;2023-02-19T07:34:46;18.07;;;9.90;;
42886;SDS011;29032;56.028;92.904;2023-02-19T07:39:49;14.17;;;9.27;;
42886;SDS011;29032;56.028;92.904;2023-02-19T07:44:52;14.93;;;8.73;;
42886;SDS011;29032;56.028;92.904;2023-02-19T07:49:54;15.17;;;9.40;;
42886;SDS011;29032;56.028;92.904;2023-02-19T07:54:57;15.30;;;10.10;;
42886;SDS011;29032;56.028;92.904;2023-02-19T07:59:59;17.73;;;8.43;;
42886;SDS011;29032;56.028;92.904;2023-02-19T08:05:02;15.70;;;9.73;;
42886;SDS011;29032;56.028;92.904;2023-02-19T08:10:07;19.63;;;11.70;;
42886;SDS011;29032;56.028;92.904;2023-02-19T08:15:09;19.97;;;13.03;;
42886;SDS011;29032;56.028;92.904;2023-02-19T08:20:11;26.53;;;14.03;;
42886;SDS011;29032;56.028;92.904;2023-02-19T08:25:15;25.90;;;14.63;;
42886;SDS011;29032;56.028;92.904;2023-02-19T08:30:17;21.43;;;14.10;;
42886;SDS011;29032;56.028;92.904;2023-02-19T08:35:19;24.80;;;14.87;;
42886;SDS011;29032;56.028;92.904;2023-02-19T08:40:23;30.40;;;16.37;;
42886;SDS011;29032;56.028;92.904;2023-02-19T08:45:26;27.07;;;16.77;;
42886;SDS011;29032;56.028;92.904;2023-02-19T08:50:28;29.03;;;16.67;;
42886;SDS011;29032;56.028;92.904;2023-02-19T08:55:32;32.73;;;18.03;;
42886;SDS011;29032;56.028;92.904;2023-02-19T09:00:34;31.07;;;18.20;;
42886;SDS011;29032;56.028;92.904;2023-02-19T09:05:36;32.63;;;18.27;;
42886;SDS011;29032;56.028;92.904;2023-02-19T09:10:40;26.63;;;16.17;;
42886;SDS011;29032;56.028;92.904;2023-02-19T09:15:42;27.47;;;15.27;;
42886;SDS011;29032;56.028;92.904;2023-02-19T09:20:44;23.57;;;13.43;;
42886;SDS011;29032;56.028;92.904;2023-02-19T09:25:49;27.07;;;16.33;;
42886;SDS011;29032;56.028;92.904;2023-02-19T09:31:02;26.83;;;16.27;;
42886;SDS011;29032;56.028;92.904;2023-02-19T09:36:05;28.53;;;17.43;;
42886;SDS011;29032;56.028;92.904;2023-02-19T09:41:13;29.67;;;17.90;;
42886;SDS011;29032;56.028;92.904;2023-02-19T09:46:23;38.33;;;21.53;;
42886;SDS011;29032;56.028;92.904;2023-02-19T09:51:31;28.93;;;19.07;;
42886;SDS011;29032;56.028;92.904;2023-02-19T09:56:38;30.50;;;18.52;;
42886;SDS011;29032;56.028;92.904;2023-02-19T10:01:40;32.83;;;18.63;;
42886;SDS011;29032;56.028;92.904;2023-02-19T10:06:44;62.20;;;45.53;;
42886;SDS011;29032;56.028;92.904;2023-02-19T10:11:49;46.87;;;29.57;;
42886;SDS011;29032;56.028;92.904;2023-02-19T10:16:53;41.47;;;25.57;;
42886;SDS011;29032;56.028;92.904;2023-02-19T10:22:00;38.63;;;23.80;;
42886;SDS011;29032;56.028;92.904;2023-02-19T10:27:07;39.83;;;24.77;;
42886;SDS011;29032;56.028;92.904;2023-02-19T10:32:15;40.47;;;23.47;;
42886;SDS011;29032;56.028;92.904;2023-02-19T10:37:18;37.53;;;21.77;;
42886;SDS011;29032;56.028;92.904;2023-02-19T10:42:23;34.63;;;20.63;;
42886;SDS011;29032;56.028;92.904;2023-02-19T10:47:26;32.23;;;20.53;;
42886;SDS011;29032;56.028;92.904;2023-02-19T10:52:30;35.10;;;20.43;;
42886;SDS011;29032;56.028;92.904;2023-02-19T10:57:37;37.87;;;22.53;;
42886;SDS011;29032;56.028;92.904;2023-02-19T11:02:39;33.80;;;21.60;;
42886;SDS011;29032;56.028;92.904;2023-02-19T11:07:42;35.33;;;23.10;;
42886;SDS011;29032;56.028;92.904;2023-02-19T11:12:48;40.30;;;25.23;;
42886;SDS011;29032;56.028;92.904;2023-02-19T11:17:58;36.87;;;23.20;;
42886;SDS011;29032;56.028;92.904;2023-02-19T11:23:05;39.80;;;23.03;;
42886;SDS011;29032;56.028;92.904;2023-02-19T11:28:25;32.43;;;20.77;;
42886;SDS011;29032;56.028;92.904;2023-02-19T11:33:31;32.97;;;21.10;;
42886;SDS011;29032;56.028;92.904;2023-02-19T11:38:34;36.97;;;21.27;;
42886;SDS011;29032;56.028;92.904;2023-02-19T11:43:41;30.53;;;17.83;;
42886;SDS011;29032;56.028;92.904;2023-02-19T11:48:55;29.85;;;18.30;;
42886;SDS011;29032;56.028;92.904;2023-02-19T11:54:15;29.87;;;16.57;;
42886;SDS011;29032;56.028;92.904;2023-02-19T11:59:28;33.43;;;17.53;;
42886;SDS011;29032;56.028;92.904;2023-02-19T12:04:41;28.93;;;16.67;;
42886;SDS011;29032;56.028;92.904;2023-02-19T12:10:21;29.00;;;14.63;;
42886;SDS011;29032;56.028;92.904;2023-02-19T12:15:45;26.03;;;16.83;;
42886;SDS011;29032;56.028;92.904;2023-02-19T12:21:21;27.13;;;17.17;;
42886;SDS011;29032;56.028;92.904;2023-02-19T12:26:34;32.33;;;16.60;;
42886;SDS011;29032;56.028;92.904;2023-02-19T12:37:19;34.77;;;22.93;;
42886;SDS011;29032;56.028;92.904;2023-02-19T12:42:36;37.90;;;20.63;;
42886;SDS011;29032;56.028;92.904;2023-02-19T12:47:55;39.03;;;20.50;;
42886;SDS011;29032;56.028;92.904;2023-02-19T12:53:04;40.90;;;21.97;;
42886;SDS011;29032;56.028;92.904;2023-02-19T12:58:12;42.23;;;23.07;;
42886;SDS011;29032;56.028;92.904;2023-02-19T13:03:24;40.90;;;23.00;;
42886;SDS011;29032;56.028;92.904;2023-02-19T13:08:31;35.87;;;22.67;;
42886;SDS011;29032;56.028;92.904;2023-02-19T13:18:44;42.50;;;23.07;;
42886;SDS011;29032;56.028;92.904;2023-02-19T13:23:48;39.72;;;22.58;;
42886;SDS011;29032;56.028;92.904;2023-02-19T13:28:57;36.70;;;22.27;;
42886;SDS011;29032;56.028;92.904;2023-02-19T13:34:11;38.35;;;23.38;;
42886;SDS011;29032;56.028;92.904;2023-02-19T13:39:25;43.70;;;23.37;;
42886;SDS011;29032;56.028;92.904;2023-02-19T13:44:27;46.90;;;25.43;;
42886;SDS011;29032;56.028;92.904;2023-02-19T13:54:48;50.53;;;27.15;;
42886;SDS011;29032;56.028;92.904;2023-02-19T13:59:51;100.67;;;52.87;;
42886;SDS011;29032;56.028;92.904;2023-02-19T14:04:56;134.97;;;64.73;;
42886;SDS011;29032;56.028;92.904;2023-02-19T14:10:00;134.87;;;63.40;;
42886;SDS011;29032;56.028;92.904;2023-02-19T14:20:44;125.70;;;60.83;;
42886;SDS011;29032;56.028;92.904;2023-02-19T14:25:47;110.10;;;51.93;;
42886;SDS011;29032;56.028;92.904;2023-02-19T14:30:55;102.57;;;52.43;;
42886;SDS011;29032;56.028;92.904;2023-02-19T14:36:02;101.83;;;49.97;;
42886;SDS011;29032;56.028;92.904;2023-02-19T14:41:10;92.17;;;46.87;;
42886;SDS011;29032;56.028;92.904;2023-02-19T14:46:16;74.00;;;39.27;;
42886;SDS011;29032;56.028;92.904;2023-02-19T14:51:28;46.80;;;24.77;;
42886;SDS011;29032;56.028;92.904;2023-02-19T14:56:34;46.97;;;24.90;;
42886;SDS011;29032;56.028;92.904;2023-02-19T15:01:37;55.47;;;27.73;;
42886;SDS011;29032;56.028;92.904;2023-02-19T15:06:41;76.00;;;36.93;;
42886;SDS011;29032;56.028;92.904;2023-02-19T15:11:43;52.77;;;26.17;;
42886;SDS011;29032;56.028;92.904;2023-02-19T15:16:46;48.13;;;25.10;;
42886;SDS011;29032;56.028;92.904;2023-02-19T15:21:50;42.83;;;22.60;;
42886;SDS011;29032;56.028;92.904;2023-02-19T15:26:52;45.90;;;21.77;;
42886;SDS011;29032;56.028;92.904;2023-02-19T15:31:56;38.97;;;21.17;;
42886;SDS011;29032;56.028;92.904;2023-02-19T15:37:02;40.97;;;21.03;;
42886;SDS011;29032;56.028;92.904;2023-02-19T15:42:07;50.28;;;25.95;;
42886;SDS011;29032;56.028;92.904;2023-02-19T15:47:14;49.40;;;26.67;;
42886;SDS011;29032;56.028;92.904;2023-02-19T15:52:29;50.47;;;27.47;;
42886;SDS011;29032;56.028;92.904;2023-02-19T15:57:37;51.67;;;28.20;;
42886;SDS011;29032;56.028;92.904;2023-02-19T16:02:43;70.50;;;35.60;;
42886;SDS011;29032;56.028;92.904;2023-02-19T16:08:03;78.30;;;41.37;;
42886;SDS011;29032;56.028;92.904;2023-02-19T16:13:21;81.33;;;42.57;;
42886;SDS011;29032;56.028;92.904;2023-02-19T16:18:24;90.13;;;48.03;;
42886;SDS011;29032;56.028;92.904;2023-02-19T16:23:27;91.67;;;46.53;;
42886;SDS011;29032;56.028;92.904;2023-02-19T16:28:31;98.80;;;47.13;;
42886;SDS011;29032;56.028;92.904;2023-02-19T16:33:39;98.43;;;48.43;;
42886;SDS011;29032;56.028;92.904;2023-02-19T16:49:43;81.10;;;41.77;;
42886;SDS011;29032;56.028;92.904;2023-02-19T16:54:46;74.03;;;39.63;;
42886;SDS011;29032;56.028;92.904;2023-02-19T16:59:48;77.90;;;39.47;;
42886;SDS011;29032;56.028;92.904;2023-02-19T17:04:52;66.63;;;35.10;;
42886;SDS011;29032;56.028;92.904;2023-02-19T17:09:54;68.80;;;33.73;;
42886;SDS011;29032;56.028;92.904;2023-02-19T17:14:56;65.13;;;33.97;;
42886;SDS011;29032;56.028;92.904;2023-02-19T17:20:00;64.53;;;34.20;;
42886;SDS011;29032;56.028;92.904;2023-02-19T17:25:02;61.10;;;30.80;;
42886;SDS011;29032;56.028;92.904;2023-02-19T17:30:05;54.20;;;28.33;;
42886;SDS011;29032;56.028;92.904;2023-02-19T17:35:13;48.92;;;25.65;;
42886;SDS011;29032;56.028;92.904;2023-02-19T17:40:19;47.63;;;25.33;;
42886;SDS011;29032;56.028;92.904;2023-02-19T17:50:27;56.33;;;26.97;;
42886;SDS011;29032;56.028;92.904;2023-02-19T17:55:30;30.67;;;17.57;;
42886;SDS011;29032;56.028;92.904;2023-02-19T18:00:32;26.40;;;15.03;;
42886;SDS011;29032;56.028;92.904;2023-02-19T18:05:36;27.77;;;15.53;;
42886;SDS011;29032;56.028;92.904;2023-02-19T18:10:38;30.97;;;17.43;;
42886;SDS011;29032;56.028;92.904;2023-02-19T18:15:41;25.67;;;12.83;;
42886;SDS011;29032;56.028;92.904;2023-02-19T18:20:44;31.33;;;14.03;;
42886;SDS011;29032;56.028;92.904;2023-02-19T18:25:46;22.53;;;14.33;;
42886;SDS011;29032;56.028;92.904;2023-02-19T18:30:48;22.63;;;12.37;;
42886;SDS011;29032;56.028;92.904;2023-02-19T18:35:52;21.60;;;12.30;;
42886;SDS011;29032;56.028;92.904;2023-02-19T18:40:54;20.00;;;12.50;;
42886;SDS011;29032;56.028;92.904;2023-02-19T18:45:56;20.73;;;12.33;;
42886;SDS011;29032;56.028;92.904;2023-02-19T18:51:00;19.23;;;12.93;;
42886;SDS011;29032;56.028;92.904;2023-02-19T18:56:02;24.47;;;15.03;;
42886;SDS011;29032;56.028;92.904;2023-02-19T19:01:04;21.83;;;14.43;;
42886;SDS011;29032;56.028;92.904;2023-02-19T19:06:08;17.33;;;10.50;;
42886;SDS011;29032;56.028;92.904;2023-02-19T19:11:11;15.87;;;10.43;;
42886;SDS011;29032;56.028;92.904;2023-02-19T19:16:13;18.57;;;10.33;;
42886;SDS011;29032;56.028;92.904;2023-02-19T19:21:17;17.67;;;10.60;;
42886;SDS011;29032;56.028;92.904;2023-02-19T19:26:20;18.57;;;11.07;;
42886;SDS011;29032;56.028;92.904;2023-02-19T19:31:22;18.77;;;10.63;;
42886;SDS011;29032;56.028;92.904;2023-02-19T19:36:25;23.67;;;13.20;;
42886;SDS011;29032;56.028;92.904;2023-02-19T19:41:27;24.50;;;14.20;;
42886;SDS011;29032;56.028;92.904;2023-02-19T19:46:30;33.30;;;16.67;;
42886;SDS011;29032;56.028;92.904;2023-02-19T19:51:34;104.43;;;50.30;;
42886;SDS011;29032;56.028;92.904;2023-02-19T19:56:38;125.83;;;57.33;;
42886;SDS011;29032;56.028;92.904;2023-02-19T20:01:46;123.40;;;56.93;;
42886;SDS011;29032;56.028;92.904;2023-02-19T20:06:50;109.43;;;49.57;;
42886;SDS011;29032;56.028;92.904;2023-02-19T20:11:52;102.77;;;48.43;;
42886;SDS011;29032;56.028;92.904;2023-02-19T20:16:55;89.57;;;46.23;;
42886;SDS011;29032;56.028;92.904;2023-02-19T20:21:58;86.27;;;43.00;;
42886;SDS011;29032;56.028;92.904;2023-02-19T20:27:00;67.17;;;34.23;;
42886;SDS011;29032;56.028;92.904;2023-02-19T20:32:03;48.90;;;22.47;;
42886;SDS011;29032;56.028;92.904;2023-02-19T20:37:07;45.47;;;22.77;;
42886;SDS011;29032;56.028;92.904;2023-02-19T20:42:09;48.77;;;22.73;;
42886;SDS011;29032;56.028;92.904;2023-02-19T20:47:11;54.13;;;26.27;;
42886;SDS011;29032;56.028;92.904;2023-02-19T20:52:15;46.60;;;24.27;;
42886;SDS011;29032;56.028;92.904;2023-02-19T20:57:18;46.03;;;22.63;;
42886;SDS011;29032;56.028;92.904;2023-02-19T21:02:20;48.63;;;23.97;;
42886;SDS011;29032;56.028;92.904;2023-02-19T21:07:25;45.70;;;24.00;;
42886;SDS011;29032;56.028;92.904;2023-02-19T21:12:27;36.87;;;19.53;;
42886;SDS011;29032;56.028;92.904;2023-02-19T21:17:29;30.20;;;14.53;;
42886;SDS011;29032;56.028;92.904;2023-02-19T21:22:33;24.87;;;12.57;;
42886;SDS011;29032;56.028;92.904;2023-02-19T21:27:35;21.80;;;11.30;;
42886;SDS011;29032;56.028;92.904;2023-02-19T21:32:38;24.07;;;10.93;;
42886;SDS011;29032;56.028;92.904;2023-02-19T21:37:42;17.97;;;10.30;;
42886;SDS011;29032;56.028;92.904;2023-02-19T21:42:44;24.03;;;11.50;;
42886;SDS011;29032;56.028;92.904;2023-02-19T21:47:46;21.20;;;11.43;;
42886;SDS011;29032;56.028;92.904;2023-02-19T21:52:49;23.03;;;10.63;;
42886;SDS011;29032;56.028;92.904;2023-02-19T21:57:52;16.73;;;9.03;;
42886;SDS011;29032;56.028;92.904;2023-02-19T22:02:54;21.63;;;10.47;;
42886;SDS011;29032;56.028;92.904;2023-02-19T22:07:58;16.20;;;8.63;;
42886;SDS011;29032;56.028;92.904;2023-02-19T22:13:00;15.73;;;8.13;;
42886;SDS011;29032;56.028;92.904;2023-02-19T22:18:02;16.97;;;8.27;;
42886;SDS011;29032;56.028;92.904;2023-02-19T22:23:06;14.40;;;8.27;;
42886;SDS011;29032;56.028;92.904;2023-02-19T22:28:08;10.77;;;7.23;;
42886;SDS011;29032;56.028;92.904;2023-02-19T22:33:10;12.90;;;7.50;;
42886;SDS011;29032;56.028;92.904;2023-02-19T22:38:14;12.50;;;6.97;;
42886;SDS011;29032;56.028;92.904;2023-02-19T22:43:16;11.90;;;6.97;;
42886;SDS011;29032;56.028;92.904;2023-02-19T22:48:19;11.53;;;7.37;;
42886;SDS011;29032;56.028;92.904;2023-02-19T22:53:22;15.03;;;8.03;;
42886;SDS011;29032;56.028;92.904;2023-02-19T22:58:24;11.30;;;6.77;;
42886;SDS011;29032;56.028;92.904;2023-02-19T23:03:26;10.90;;;6.97;;
42886;SDS011;29032;56.028;92.904;2023-02-19T23:08:30;10.00;;;6.07;;
42886;SDS011;29032;56.028;92.904;2023-02-19T23:13:32;12.13;;;7.43;;
42886;SDS011;29032;56.028;92.904;2023-02-19T23:18:34;14.40;;;8.00;;
42886;SDS011;29032;56.028;92.904;2023-02-19T23:23:38;11.80;;;6.50;;
42886;SDS011;29032;56.028;92.904;2023-02-19T23:28:41;12.23;;;6.63;;
42886;SDS011;29032;56.028;92.904;2023-02-19T23:33:44;12.00;;;6.73;;
42886;SDS011;29032;56.028;92.904;2023-02-19T23:38:48;14.03;;;7.63;;
42886;SDS011;29032;56.028;92.904;2023-02-19T23:43:50;19.63;;;9.73;;
42886;SDS011;29032;56.028;92.904;2023-02-19T23:48:53;16.97;;;7.67;;
42886;SDS011;29032;56.028;92.904;2023-02-19T23:53:56;15.27;;;8.93;;
42886;SDS011;29032;56.028;92.904;2023-02-19T23:58:58;13.03;;;8.70;;
